sensor_id;sensor_type;location;lat;lon;timestamp;temperature;humidity
9881;DHT22;4979;51.014;6.678;2023-05-07T00:00:35;15.30;99.90
9881;DHT22;4979;51.014;6.678;2023-05-07T00:03:01;15.30;99.90
9881;DHT22;4979;51.014;6.678;2023-05-07T00:07:52;15.30;99.90
9881;DHT22;4979;51.014;6.678;2023-05-07T00:10:18;15.20;99.90
9881;DHT22;4979;51.014;6.678;2023-05-07T00:12:44;15.20;99.90
9881;DHT22;4979;51.014;6.678;2023-05-07T00:15:10;15.20;99.90
9881;DHT22;4979;51.014;6.678;2023-05-07T00:17:36;15.20;99.90
9881;DHT22;4979;51.014;6.678;2023-05-07T00:20:03;15.20;99.90
9881;DHT22;4979;51.014;6.678;2023-05-07T00:22:29;15.20;99.90
9881;DHT22;4979;51.014;6.678;2023-05-07T00:24:56;15.20;99.90
9881;DHT22;4979;51.014;6.678;2023-05-07T00:27:22;15.20;99.90
9881;DHT22;4979;51.014;6.678;2023-05-07T00:29:47;15.20;99.90
9881;DHT22;4979;51.014;6.678;2023-05-07T00:32:13;15.20;99.90
9881;DHT22;4979;51.014;6.678;2023-05-07T00:34:39;15.20;99.90
9881;DHT22;4979;51.014;6.678;2023-05-07T00:37:05;15.10;99.90
9881;DHT22;4979;51.014;6.678;2023-05-07T00:39:32;15.20;99.90
9881;DHT22;4979;51.014;6.678;2023-05-07T00:41:58;15.20;99.90
9881;DHT22;4979;51.014;6.678;2023-05-07T00:44:24;15.10;99.90
9881;DHT22;4979;51.014;6.678;2023-05-07T00:46:50;15.10;99.90
9881;DHT22;4979;51.014;6.678;2023-05-07T00:49:16;15.20;99.90
9881;DHT22;4979;51.014;6.678;2023-05-07T00:51:42;15.00;99.90
9881;DHT22;4979;51.014;6.678;2023-05-07T00:54:08;15.00;99.90
9881;DHT22;4979;51.014;6.678;2023-05-07T00:56:34;15.00;99.90
9881;DHT22;4979;51.014;6.678;2023-05-07T00:59:01;15.00;99.90
9881;DHT22;4979;51.014;6.678;2023-05-07T01:01:28;15.00;99.90
9881;DHT22;4979;51.014;6.678;2023-05-07T01:03:53;15.00;99.90
9881;DHT22;4979;51.014;6.678;2023-05-07T01:06:20;15.00;99.90
9881;DHT22;4979;51.014;6.678;2023-05-07T01:08:46;15.00;99.90
9881;DHT22;4979;51.014;6.678;2023-05-07T01:11:13;15.00;99.90
9881;DHT22;4979;51.014;6.678;2023-05-07T01:13:39;15.00;99.90
9881;DHT22;4979;51.014;6.678;2023-05-07T01:16:06;15.00;99.90
9881;DHT22;4979;51.014;6.678;2023-05-07T01:18:32;14.90;99.90
9881;DHT22;4979;51.014;6.678;2023-05-07T01:20:58;14.90;99.90
9881;DHT22;4979;51.014;6.678;2023-05-07T01:23:25;15.00;99.90
9881;DHT22;4979;51.014;6.678;2023-05-07T01:25:53;15.00;99.90
9881;DHT22;4979;51.014;6.678;2023-05-07T01:28:19;15.00;99.90
9881;DHT22;4979;51.014;6.678;2023-05-07T01:30:48;15.00;99.90
9881;DHT22;4979;51.014;6.678;2023-05-07T01:33:19;15.00;99.90
9881;DHT22;4979;51.014;6.678;2023-05-07T01:35:47;15.00;99.90
9881;DHT22;4979;51.014;6.678;2023-05-07T01:38:13;14.90;99.90
9881;DHT22;4979;51.014;6.678;2023-05-07T01:40:40;15.00;99.90
9881;DHT22;4979;51.014;6.678;2023-05-07T01:43:06;15.00;99.90
9881;DHT22;4979;51.014;6.678;2023-05-07T01:45:32;15.00;99.90
9881;DHT22;4979;51.014;6.678;2023-05-07T01:47:59;14.90;99.90
9881;DHT22;4979;51.014;6.678;2023-05-07T01:50:25;15.00;99.90
9881;DHT22;4979;51.014;6.678;2023-05-07T01:52:52;15.00;99.90
9881;DHT22;4979;51.014;6.678;2023-05-07T01:55:17;14.90;99.90
9881;DHT22;4979;51.014;6.678;2023-05-07T02:00:09;14.90;99.90
9881;DHT22;4979;51.014;6.678;2023-05-07T02:02:35;14.90;99.90
9881;DHT22;4979;51.014;6.678;2023-05-07T02:05:01;14.90;99.90
9881;DHT22;4979;51.014;6.678;2023-05-07T02:07:27;14.80;99.90
9881;DHT22;4979;51.014;6.678;2023-05-07T02:09:53;14.80;99.90
9881;DHT22;4979;51.014;6.678;2023-05-07T02:12:20;14.80;99.90
9881;DHT22;4979;51.014;6.678;2023-05-07T02:14:46;14.80;99.90
9881;DHT22;4979;51.014;6.678;2023-05-07T02:17:12;14.80;99.90
9881;DHT22;4979;51.014;6.678;2023-05-07T02:19:37;14.70;99.90
9881;DHT22;4979;51.014;6.678;2023-05-07T02:22:03;14.60;99.90
9881;DHT22;4979;51.014;6.678;2023-05-07T02:24:28;14.70;99.90
9881;DHT22;4979;51.014;6.678;2023-05-07T02:26:54;14.50;99.90
9881;DHT22;4979;51.014;6.678;2023-05-07T02:29:20;14.50;99.90
9881;DHT22;4979;51.014;6.678;2023-05-07T02:31:45;14.50;99.90
9881;DHT22;4979;51.014;6.678;2023-05-07T02:34:11;14.40;99.90
9881;DHT22;4979;51.014;6.678;2023-05-07T02:39:03;14.40;99.90
9881;DHT22;4979;51.014;6.678;2023-05-07T02:41:28;14.40;99.90
9881;DHT22;4979;51.014;6.678;2023-05-07T02:43:54;14.40;99.90
9881;DHT22;4979;51.014;6.678;2023-05-07T02:46:19;14.40;99.90
9881;DHT22;4979;51.014;6.678;2023-05-07T02:48:45;14.50;99.90
9881;DHT22;4979;51.014;6.678;2023-05-07T02:51:10;14.40;99.90
9881;DHT22;4979;51.014;6.678;2023-05-07T02:53:36;14.50;99.90
9881;DHT22;4979;51.014;6.678;2023-05-07T02:56:02;14.40;99.90
9881;DHT22;4979;51.014;6.678;2023-05-07T02:58:28;14.50;99.90
9881;DHT22;4979;51.014;6.678;2023-05-07T03:00:53;14.50;99.90
9881;DHT22;4979;51.014;6.678;2023-05-07T03:03:20;14.50;99.90
9881;DHT22;4979;51.014;6.678;2023-05-07T03:05:46;14.40;99.90
9881;DHT22;4979;51.014;6.678;2023-05-07T03:08:12;14.50;99.90
9881;DHT22;4979;51.014;6.678;2023-05-07T03:13:03;14.50;99.90
9881;DHT22;4979;51.014;6.678;2023-05-07T03:15:29;14.50;99.90
9881;DHT22;4979;51.014;6.678;2023-05-07T03:17:55;14.40;99.90
9881;DHT22;4979;51.014;6.678;2023-05-07T03:20:20;14.40;99.90
9881;DHT22;4979;51.014;6.678;2023-05-07T03:22:46;14.50;99.90
9881;DHT22;4979;51.014;6.678;2023-05-07T03:25:12;14.40;99.90
9881;DHT22;4979;51.014;6.678;2023-05-07T03:27:39;14.40;99.90
9881;DHT22;4979;51.014;6.678;2023-05-07T03:30:05;14.40;99.90
9881;DHT22;4979;51.014;6.678;2023-05-07T03:32:32;14.40;99.90
9881;DHT22;4979;51.014;6.678;2023-05-07T03:34:57;14.40;99.90
9881;DHT22;4979;51.014;6.678;2023-05-07T03:37:23;14.40;99.90
9881;DHT22;4979;51.014;6.678;2023-05-07T03:39:49;14.30;99.90
9881;DHT22;4979;51.014;6.678;2023-05-07T03:42:15;14.30;99.90
9881;DHT22;4979;51.014;6.678;2023-05-07T03:44:40;14.30;99.90
9881;DHT22;4979;51.014;6.678;2023-05-07T03:47:06;14.20;99.90
9881;DHT22;4979;51.014;6.678;2023-05-07T03:49:31;14.30;99.90
9881;DHT22;4979;51.014;6.678;2023-05-07T03:51:57;14.20;99.90
9881;DHT22;4979;51.014;6.678;2023-05-07T03:54:23;14.20;99.90
9881;DHT22;4979;51.014;6.678;2023-05-07T03:56:48;14.20;99.90
9881;DHT22;4979;51.014;6.678;2023-05-07T03:59:14;14.20;99.90
9881;DHT22;4979;51.014;6.678;2023-05-07T04:01:39;14.20;99.90
9881;DHT22;4979;51.014;6.678;2023-05-07T04:04:05;14.20;99.90
9881;DHT22;4979;51.014;6.678;2023-05-07T04:06:31;14.20;99.90
9881;DHT22;4979;51.014;6.678;2023-05-07T04:08:57;14.20;99.90
9881;DHT22;4979;51.014;6.678;2023-05-07T04:11:23;14.10;99.90
9881;DHT22;4979;51.014;6.678;2023-05-07T04:13:48;14.20;99.90
9881;DHT22;4979;51.014;6.678;2023-05-07T04:16:14;14.20;99.90
9881;DHT22;4979;51.014;6.678;2023-05-07T04:18:39;14.20;99.90
9881;DHT22;4979;51.014;6.678;2023-05-07T04:21:05;14.20;99.90
9881;DHT22;4979;51.014;6.678;2023-05-07T04:23:31;14.20;99.90
9881;DHT22;4979;51.014;6.678;2023-05-07T04:25:56;14.30;99.90
9881;DHT22;4979;51.014;6.678;2023-05-07T04:28:23;14.30;99.90
9881;DHT22;4979;51.014;6.678;2023-05-07T04:30:48;14.30;99.90
9881;DHT22;4979;51.014;6.678;2023-05-07T04:33:14;14.40;99.90
9881;DHT22;4979;51.014;6.678;2023-05-07T04:35:43;14.40;99.90
9881;DHT22;4979;51.014;6.678;2023-05-07T04:38:09;14.40;99.90
9881;DHT22;4979;51.014;6.678;2023-05-07T04:40:36;14.50;99.90
9881;DHT22;4979;51.014;6.678;2023-05-07T04:43:02;14.50;99.90
9881;DHT22;4979;51.014;6.678;2023-05-07T04:45:28;14.50;99.90
9881;DHT22;4979;51.014;6.678;2023-05-07T04:47:53;14.50;99.90
9881;DHT22;4979;51.014;6.678;2023-05-07T04:50:19;14.60;99.90
9881;DHT22;4979;51.014;6.678;2023-05-07T04:52:45;14.60;99.90
9881;DHT22;4979;51.014;6.678;2023-05-07T04:55:10;14.60;99.90
9881;DHT22;4979;51.014;6.678;2023-05-07T05:00:05;14.60;99.90
9881;DHT22;4979;51.014;6.678;2023-05-07T05:02:31;14.60;99.90
9881;DHT22;4979;51.014;6.678;2023-05-07T05:04:56;14.70;99.90
9881;DHT22;4979;51.014;6.678;2023-05-07T05:07:22;14.70;99.90
9881;DHT22;4979;51.014;6.678;2023-05-07T05:09:47;14.80;99.90
9881;DHT22;4979;51.014;6.678;2023-05-07T05:12:13;14.90;99.90
9881;DHT22;4979;51.014;6.678;2023-05-07T05:14:39;15.00;99.90
9881;DHT22;4979;51.014;6.678;2023-05-07T05:17:04;15.00;99.90
9881;DHT22;4979;51.014;6.678;2023-05-07T05:19:30;15.10;99.90
9881;DHT22;4979;51.014;6.678;2023-05-07T05:21:55;15.00;99.90
9881;DHT22;4979;51.014;6.678;2023-05-07T05:24:21;15.10;99.90
9881;DHT22;4979;51.014;6.678;2023-05-07T05:26:46;15.20;99.90
9881;DHT22;4979;51.014;6.678;2023-05-07T05:31:38;15.10;99.90
9881;DHT22;4979;51.014;6.678;2023-05-07T05:34:03;15.10;99.90
9881;DHT22;4979;51.014;6.678;2023-05-07T05:36:29;15.20;99.90
9881;DHT22;4979;51.014;6.678;2023-05-07T05:38:56;15.20;99.90
9881;DHT22;4979;51.014;6.678;2023-05-07T05:41:21;15.20;99.90
9881;DHT22;4979;51.014;6.678;2023-05-07T05:43:47;15.20;99.90
9881;DHT22;4979;51.014;6.678;2023-05-07T05:46:12;15.20;99.90
9881;DHT22;4979;51.014;6.678;2023-05-07T05:48:38;15.20;99.90
9881;DHT22;4979;51.014;6.678;2023-05-07T05:51:03;15.10;99.90
9881;DHT22;4979;51.014;6.678;2023-05-07T05:53:29;15.20;99.90
9881;DHT22;4979;51.014;6.678;2023-05-07T05:55:54;15.30;99.90
9881;DHT22;4979;51.014;6.678;2023-05-07T05:58:20;15.40;99.90
9881;DHT22;4979;51.014;6.678;2023-05-07T06:00:46;15.50;99.90
9881;DHT22;4979;51.014;6.678;2023-05-07T06:03:12;15.50;99.90
9881;DHT22;4979;51.014;6.678;2023-05-07T06:05:37;15.60;99.90
9881;DHT22;4979;51.014;6.678;2023-05-07T06:08:03;15.70;99.90
9881;DHT22;4979;51.014;6.678;2023-05-07T06:10:29;15.70;99.90
9881;DHT22;4979;51.014;6.678;2023-05-07T06:12:55;15.70;99.90
9881;DHT22;4979;51.014;6.678;2023-05-07T06:15:21;15.70;99.90
9881;DHT22;4979;51.014;6.678;2023-05-07T06:22:38;16.20;99.90
9881;DHT22;4979;51.014;6.678;2023-05-07T06:25:04;16.40;99.90
9881;DHT22;4979;51.014;6.678;2023-05-07T06:27:29;16.60;99.90
9881;DHT22;4979;51.014;6.678;2023-05-07T06:29:55;16.70;99.90
9881;DHT22;4979;51.014;6.678;2023-05-07T06:32:21;16.70;99.90
9881;DHT22;4979;51.014;6.678;2023-05-07T06:37:12;16.80;99.90
9881;DHT22;4979;51.014;6.678;2023-05-07T06:42:04;16.90;99.90
9881;DHT22;4979;51.014;6.678;2023-05-07T06:44:30;16.80;99.90
9881;DHT22;4979;51.014;6.678;2023-05-07T06:46:56;16.70;99.90
9881;DHT22;4979;51.014;6.678;2023-05-07T06:49:22;16.70;99.90
9881;DHT22;4979;51.014;6.678;2023-05-07T06:51:47;16.70;99.90
9881;DHT22;4979;51.014;6.678;2023-05-07T06:56:39;17.00;99.90
9881;DHT22;4979;51.014;6.678;2023-05-07T07:08:48;17.40;99.90
9881;DHT22;4979;51.014;6.678;2023-05-07T07:16:08;17.60;99.90
9881;DHT22;4979;51.014;6.678;2023-05-07T07:18:33;17.60;99.90
9881;DHT22;4979;51.014;6.678;2023-05-07T07:20:59;17.60;99.90
9881;DHT22;4979;51.014;6.678;2023-05-07T07:23:25;17.60;99.90
9881;DHT22;4979;51.014;6.678;2023-05-07T07:25:50;17.70;99.90
9881;DHT22;4979;51.014;6.678;2023-05-07T07:28:16;17.70;99.90
9881;DHT22;4979;51.014;6.678;2023-05-07T07:30:42;17.80;99.90
9881;DHT22;4979;51.014;6.678;2023-05-07T07:35:33;18.00;99.90
9881;DHT22;4979;51.014;6.678;2023-05-07T07:40:25;17.90;99.90
9881;DHT22;4979;51.014;6.678;2023-05-07T07:42:51;17.80;99.90
9881;DHT22;4979;51.014;6.678;2023-05-07T07:45:17;17.90;99.90
9881;DHT22;4979;51.014;6.678;2023-05-07T07:55:01;18.50;99.90
9881;DHT22;4979;51.014;6.678;2023-05-07T07:57:27;18.60;99.90
9881;DHT22;4979;51.014;6.678;2023-05-07T08:04:45;19.00;99.90
9881;DHT22;4979;51.014;6.678;2023-05-07T08:07:11;19.20;99.90
9881;DHT22;4979;51.014;6.678;2023-05-07T08:09:40;19.20;99.90
9881;DHT22;4979;51.014;6.678;2023-05-07T08:12:06;19.10;99.90
9881;DHT22;4979;51.014;6.678;2023-05-07T08:14:32;19.10;99.90
9881;DHT22;4979;51.014;6.678;2023-05-07T08:16:58;19.30;99.90
9881;DHT22;4979;51.014;6.678;2023-05-07T08:21:50;19.30;99.90
9881;DHT22;4979;51.014;6.678;2023-05-07T08:24:16;19.30;99.90
9881;DHT22;4979;51.014;6.678;2023-05-07T08:26:42;19.40;99.90
9881;DHT22;4979;51.014;6.678;2023-05-07T08:29:08;19.40;99.90
9881;DHT22;4979;51.014;6.678;2023-05-07T08:31:34;19.60;99.90
9881;DHT22;4979;51.014;6.678;2023-05-07T08:33:59;19.80;99.90
9881;DHT22;4979;51.014;6.678;2023-05-07T08:36:25;20.00;99.90
9881;DHT22;4979;51.014;6.678;2023-05-07T08:43:47;20.70;99.90
9881;DHT22;4979;51.014;6.678;2023-05-07T08:46:19;20.70;99.90
9881;DHT22;4979;51.014;6.678;2023-05-07T08:48:48;20.80;99.90
9881;DHT22;4979;51.014;6.678;2023-05-07T08:51:17;20.90;99.90
9881;DHT22;4979;51.014;6.678;2023-05-07T08:53:44;20.60;99.90
9881;DHT22;4979;51.014;6.678;2023-05-07T08:56:10;20.50;99.90
9881;DHT22;4979;51.014;6.678;2023-05-07T08:58:36;20.70;99.90
9881;DHT22;4979;51.014;6.678;2023-05-07T09:01:10;20.80;99.90
9881;DHT22;4979;51.014;6.678;2023-05-07T09:03:38;21.00;99.90
9881;DHT22;4979;51.014;6.678;2023-05-07T09:06:04;20.80;99.90
9881;DHT22;4979;51.014;6.678;2023-05-07T09:08:33;21.10;99.90
9881;DHT22;4979;51.014;6.678;2023-05-07T09:13:25;21.10;99.90
9881;DHT22;4979;51.014;6.678;2023-05-07T09:15:50;21.10;99.90
9881;DHT22;4979;51.014;6.678;2023-05-07T09:18:16;21.10;99.90
9881;DHT22;4979;51.014;6.678;2023-05-07T09:20:41;21.30;99.90
9881;DHT22;4979;51.014;6.678;2023-05-07T09:23:07;21.40;99.90
9881;DHT22;4979;51.014;6.678;2023-05-07T09:25:34;21.60;99.90
9881;DHT22;4979;51.014;6.678;2023-05-07T09:28:01;21.90;99.90
9881;DHT22;4979;51.014;6.678;2023-05-07T09:30:30;22.10;99.90
9881;DHT22;4979;51.014;6.678;2023-05-07T09:32:58;22.30;99.90
9881;DHT22;4979;51.014;6.678;2023-05-07T09:35:24;22.40;99.90
9881;DHT22;4979;51.014;6.678;2023-05-07T09:40:23;22.40;99.90
9881;DHT22;4979;51.014;6.678;2023-05-07T09:45:16;22.40;99.90
9881;DHT22;4979;51.014;6.678;2023-05-07T09:47:43;22.40;99.90
9881;DHT22;4979;51.014;6.678;2023-05-07T09:50:12;22.50;99.90
9881;DHT22;4979;51.014;6.678;2023-05-07T09:52:41;22.50;99.90
9881;DHT22;4979;51.014;6.678;2023-05-07T09:57:34;22.90;99.90
9881;DHT22;4979;51.014;6.678;2023-05-07T10:00:01;22.80;99.90
9881;DHT22;4979;51.014;6.678;2023-05-07T10:02:30;22.70;99.90
9881;DHT22;4979;51.014;6.678;2023-05-07T10:04:57;22.80;99.90
9881;DHT22;4979;51.014;6.678;2023-05-07T10:07:26;22.90;99.90
9881;DHT22;4979;51.014;6.678;2023-05-07T10:09:52;22.90;99.90
9881;DHT22;4979;51.014;6.678;2023-05-07T10:12:18;23.10;99.90
9881;DHT22;4979;51.014;6.678;2023-05-07T10:14:45;22.90;99.90
9881;DHT22;4979;51.014;6.678;2023-05-07T10:17:11;23.00;99.90
9881;DHT22;4979;51.014;6.678;2023-05-07T10:19:37;23.00;99.90
9881;DHT22;4979;51.014;6.678;2023-05-07T10:22:05;22.80;99.90
9881;DHT22;4979;51.014;6.678;2023-05-07T10:24:35;23.00;99.90
9881;DHT22;4979;51.014;6.678;2023-05-07T10:27:05;23.10;99.90
9881;DHT22;4979;51.014;6.678;2023-05-07T10:29:49;23.20;99.90
9881;DHT22;4979;51.014;6.678;2023-05-07T10:35:03;23.60;99.90
9881;DHT22;4979;51.014;6.678;2023-05-07T10:37:30;23.60;99.90
9881;DHT22;4979;51.014;6.678;2023-05-07T10:39:56;23.50;99.90
9881;DHT22;4979;51.014;6.678;2023-05-07T10:47:18;23.60;99.90
9881;DHT22;4979;51.014;6.678;2023-05-07T10:52:13;23.40;99.90
9881;DHT22;4979;51.014;6.678;2023-05-07T11:05:30;23.60;99.90
9881;DHT22;4979;51.014;6.678;2023-05-07T11:08:03;23.70;99.90
9881;DHT22;4979;51.014;6.678;2023-05-07T11:10:55;23.70;99.90
9881;DHT22;4979;51.014;6.678;2023-05-07T11:13:44;23.80;99.90
9881;DHT22;4979;51.014;6.678;2023-05-07T11:16:20;24.00;99.90
9881;DHT22;4979;51.014;6.678;2023-05-07T11:18:54;24.00;99.90
9881;DHT22;4979;51.014;6.678;2023-05-07T11:21:40;23.90;99.90
9881;DHT22;4979;51.014;6.678;2023-05-07T11:24:10;24.10;99.90
9881;DHT22;4979;51.014;6.678;2023-05-07T11:27:05;24.10;99.90
9881;DHT22;4979;51.014;6.678;2023-05-07T11:31:56;24.50;99.90
9881;DHT22;4979;51.014;6.678;2023-05-07T11:34:25;24.50;99.90
9881;DHT22;4979;51.014;6.678;2023-05-07T11:36:51;24.30;99.90
9881;DHT22;4979;51.014;6.678;2023-05-07T11:39:31;24.40;99.90
9881;DHT22;4979;51.014;6.678;2023-05-07T11:44:24;24.50;99.90
9881;DHT22;4979;51.014;6.678;2023-05-07T11:46:50;24.80;99.90
9881;DHT22;4979;51.014;6.678;2023-05-07T11:49:17;24.60;99.90
9881;DHT22;4979;51.014;6.678;2023-05-07T11:51:42;24.50;99.90
9881;DHT22;4979;51.014;6.678;2023-05-07T11:54:08;24.40;99.90
9881;DHT22;4979;51.014;6.678;2023-05-07T11:56:36;24.40;99.90
9881;DHT22;4979;51.014;6.678;2023-05-07T12:11:15;24.10;99.90
9881;DHT22;4979;51.014;6.678;2023-05-07T12:13:41;23.90;99.90
9881;DHT22;4979;51.014;6.678;2023-05-07T12:18:35;23.80;99.90
9881;DHT22;4979;51.014;6.678;2023-05-07T12:21:04;23.80;99.90
9881;DHT22;4979;51.014;6.678;2023-05-07T12:23:30;23.80;99.90
9881;DHT22;4979;51.014;6.678;2023-05-07T12:25:56;23.80;99.90
9881;DHT22;4979;51.014;6.678;2023-05-07T12:28:22;23.70;99.90
9881;DHT22;4979;51.014;6.678;2023-05-07T12:30:50;23.60;99.90
9881;DHT22;4979;51.014;6.678;2023-05-07T12:33:24;23.50;99.90
9881;DHT22;4979;51.014;6.678;2023-05-07T12:35:50;23.60;99.90
9881;DHT22;4979;51.014;6.678;2023-05-07T12:38:17;23.60;99.90
9881;DHT22;4979;51.014;6.678;2023-05-07T12:41:01;23.40;99.90
9881;DHT22;4979;51.014;6.678;2023-05-07T12:43:28;23.40;99.90
9881;DHT22;4979;51.014;6.678;2023-05-07T12:45:56;23.30;99.90
9881;DHT22;4979;51.014;6.678;2023-05-07T12:48:22;23.10;99.90
9881;DHT22;4979;51.014;6.678;2023-05-07T12:50:50;23.10;99.90
9881;DHT22;4979;51.014;6.678;2023-05-07T12:53:16;23.10;99.90
9881;DHT22;4979;51.014;6.678;2023-05-07T12:55:50;22.90;99.90
9881;DHT22;4979;51.014;6.678;2023-05-07T12:58:20;22.80;99.90
9881;DHT22;4979;51.014;6.678;2023-05-07T13:00:50;22.70;99.90
9881;DHT22;4979;51.014;6.678;2023-05-07T13:05:54;21.80;99.90
9881;DHT22;4979;51.014;6.678;2023-05-07T13:08:30;22.60;99.90
9881;DHT22;4979;51.014;6.678;2023-05-07T13:10:58;22.50;99.90
9881;DHT22;4979;51.014;6.678;2023-05-07T13:13:24;22.50;99.90
9881;DHT22;4979;51.014;6.678;2023-05-07T13:20:42;22.20;99.90
9881;DHT22;4979;51.014;6.678;2023-05-07T13:32:55;21.70;99.90
9881;DHT22;4979;51.014;6.678;2023-05-07T13:37:47;21.60;99.90
9881;DHT22;4979;51.014;6.678;2023-05-07T13:42:43;21.30;99.90
9881;DHT22;4979;51.014;6.678;2023-05-07T13:45:09;21.20;99.90
9881;DHT22;4979;51.014;6.678;2023-05-07T13:47:34;21.10;99.90
9881;DHT22;4979;51.014;6.678;2023-05-07T13:52:26;21.20;99.90
9881;DHT22;4979;51.014;6.678;2023-05-07T13:57:18;21.40;99.90
9881;DHT22;4979;51.014;6.678;2023-05-07T13:59:44;21.40;99.90
9881;DHT22;4979;51.014;6.678;2023-05-07T14:09:27;21.20;99.90
9881;DHT22;4979;51.014;6.678;2023-05-07T14:14:19;21.00;99.90
9881;DHT22;4979;51.014;6.678;2023-05-07T14:19:13;20.70;99.90
9881;DHT22;4979;51.014;6.678;2023-05-07T14:21:39;20.70;99.90
9881;DHT22;4979;51.014;6.678;2023-05-07T14:24:07;20.80;99.90
9881;DHT22;4979;51.014;6.678;2023-05-07T14:26:33;20.70;99.90
9881;DHT22;4979;51.014;6.678;2023-05-07T14:28:59;20.70;99.90
9881;DHT22;4979;51.014;6.678;2023-05-07T14:31:24;20.60;99.90
9881;DHT22;4979;51.014;6.678;2023-05-07T14:33:50;20.70;99.90
9881;DHT22;4979;51.014;6.678;2023-05-07T14:41:11;20.60;99.90
9881;DHT22;4979;51.014;6.678;2023-05-07T14:43:36;20.70;99.90
9881;DHT22;4979;51.014;6.678;2023-05-07T14:46:02;20.80;99.90
9881;DHT22;4979;51.014;6.678;2023-05-07T14:53:19;21.00;99.90
9881;DHT22;4979;51.014;6.678;2023-05-07T14:58:11;21.20;99.90
9881;DHT22;4979;51.014;6.678;2023-05-07T15:00:36;21.30;99.90
9881;DHT22;4979;51.014;6.678;2023-05-07T15:03:07;21.40;99.90
9881;DHT22;4979;51.014;6.678;2023-05-07T15:07:58;21.30;99.90
9881;DHT22;4979;51.014;6.678;2023-05-07T15:10:24;21.40;99.90
9881;DHT22;4979;51.014;6.678;2023-05-07T15:15:17;21.10;99.90
9881;DHT22;4979;51.014;6.678;2023-05-07T15:20:09;21.20;99.90
9881;DHT22;4979;51.014;6.678;2023-05-07T15:22:35;21.30;99.90
9881;DHT22;4979;51.014;6.678;2023-05-07T15:25:02;21.30;99.90
9881;DHT22;4979;51.014;6.678;2023-05-07T15:27:29;21.20;99.90
9881;DHT22;4979;51.014;6.678;2023-05-07T15:29:56;21.10;99.90
9881;DHT22;4979;51.014;6.678;2023-05-07T15:34:47;21.10;99.90
9881;DHT22;4979;51.014;6.678;2023-05-07T15:37:13;21.00;99.90
9881;DHT22;4979;51.014;6.678;2023-05-07T15:39:38;20.80;99.90
9881;DHT22;4979;51.014;6.678;2023-05-07T15:44:30;20.80;99.90
9881;DHT22;4979;51.014;6.678;2023-05-07T15:46:58;20.60;99.90
9881;DHT22;4979;51.014;6.678;2023-05-07T15:49:24;20.50;99.90
9881;DHT22;4979;51.014;6.678;2023-05-07T15:51:49;20.40;99.90
9881;DHT22;4979;51.014;6.678;2023-05-07T15:56:45;20.40;99.90
9881;DHT22;4979;51.014;6.678;2023-05-07T16:04:06;20.20;99.90
9881;DHT22;4979;51.014;6.678;2023-05-07T16:06:32;20.30;99.90
9881;DHT22;4979;51.014;6.678;2023-05-07T16:08:57;20.30;99.90
9881;DHT22;4979;51.014;6.678;2023-05-07T16:13:49;20.40;99.90
9881;DHT22;4979;51.014;6.678;2023-05-07T16:18:41;20.40;99.90
9881;DHT22;4979;51.014;6.678;2023-05-07T16:21:06;20.40;99.90
9881;DHT22;4979;51.014;6.678;2023-05-07T16:23:32;20.50;99.90
9881;DHT22;4979;51.014;6.678;2023-05-07T16:25:58;20.50;99.90
9881;DHT22;4979;51.014;6.678;2023-05-07T16:30:50;20.50;99.90
9881;DHT22;4979;51.014;6.678;2023-05-07T16:33:16;20.30;99.90
9881;DHT22;4979;51.014;6.678;2023-05-07T16:35:41;20.20;99.90
9881;DHT22;4979;51.014;6.678;2023-05-07T16:38:12;20.30;99.90
9881;DHT22;4979;51.014;6.678;2023-05-07T16:40:38;20.30;99.90
9881;DHT22;4979;51.014;6.678;2023-05-07T16:43:04;20.30;99.90
9881;DHT22;4979;51.014;6.678;2023-05-07T16:45:30;20.40;99.90
9881;DHT22;4979;51.014;6.678;2023-05-07T16:52:48;20.20;99.90
9881;DHT22;4979;51.014;6.678;2023-05-07T16:57:40;20.20;99.90
9881;DHT22;4979;51.014;6.678;2023-05-07T17:00:07;20.10;99.90
9881;DHT22;4979;51.014;6.678;2023-05-07T17:05:00;20.10;99.90
9881;DHT22;4979;51.014;6.678;2023-05-07T17:07:26;20.00;99.90
9881;DHT22;4979;51.014;6.678;2023-05-07T17:09:53;20.00;99.90
9881;DHT22;4979;51.014;6.678;2023-05-07T17:12:18;20.00;99.90
9881;DHT22;4979;51.014;6.678;2023-05-07T17:14:44;19.90;99.90
9881;DHT22;4979;51.014;6.678;2023-05-07T17:17:10;19.90;99.90
9881;DHT22;4979;51.014;6.678;2023-05-07T17:19:37;19.80;99.90
9881;DHT22;4979;51.014;6.678;2023-05-07T17:22:02;19.70;99.90
9881;DHT22;4979;51.014;6.678;2023-05-07T17:24:28;19.70;99.90
9881;DHT22;4979;51.014;6.678;2023-05-07T17:29:20;19.60;99.90
9881;DHT22;4979;51.014;6.678;2023-05-07T17:31:47;19.50;99.90
9881;DHT22;4979;51.014;6.678;2023-05-07T17:34:14;19.50;99.90
9881;DHT22;4979;51.014;6.678;2023-05-07T17:36:41;19.50;99.90
9881;DHT22;4979;51.014;6.678;2023-05-07T17:39:07;19.40;99.90
9881;DHT22;4979;51.014;6.678;2023-05-07T17:41:35;20.50;99.90
9881;DHT22;4979;51.014;6.678;2023-05-07T17:44:02;19.30;99.90
9881;DHT22;4979;51.014;6.678;2023-05-07T17:46:29;19.30;99.90
9881;DHT22;4979;51.014;6.678;2023-05-07T17:48:56;19.20;99.90
9881;DHT22;4979;51.014;6.678;2023-05-07T17:53:50;19.20;99.90
9881;DHT22;4979;51.014;6.678;2023-05-07T17:56:16;19.20;99.90
9881;DHT22;4979;51.014;6.678;2023-05-07T18:01:07;19.20;99.90
9881;DHT22;4979;51.014;6.678;2023-05-07T18:08:25;19.10;99.90
9881;DHT22;4979;51.014;6.678;2023-05-07T18:10:51;19.10;99.90
9881;DHT22;4979;51.014;6.678;2023-05-07T18:15:44;19.00;99.90
9881;DHT22;4979;51.014;6.678;2023-05-07T18:18:10;19.00;99.90
9881;DHT22;4979;51.014;6.678;2023-05-07T18:20:36;19.00;99.90
9881;DHT22;4979;51.014;6.678;2023-05-07T18:23:01;19.00;99.90
9881;DHT22;4979;51.014;6.678;2023-05-07T18:25:28;19.00;99.90
9881;DHT22;4979;51.014;6.678;2023-05-07T18:32:47;18.80;99.90
9881;DHT22;4979;51.014;6.678;2023-05-07T18:37:38;18.70;99.90
9881;DHT22;4979;51.014;6.678;2023-05-07T18:40:04;18.60;99.90
9881;DHT22;4979;51.014;6.678;2023-05-07T18:42:30;18.60;99.90
9881;DHT22;4979;51.014;6.678;2023-05-07T18:44:56;18.60;99.90
9881;DHT22;4979;51.014;6.678;2023-05-07T18:49:48;18.50;99.90
9881;DHT22;4979;51.014;6.678;2023-05-07T18:52:15;18.50;99.90
9881;DHT22;4979;51.014;6.678;2023-05-07T18:57:07;18.40;99.90
9881;DHT22;4979;51.014;6.678;2023-05-07T18:59:33;18.30;99.90
9881;DHT22;4979;51.014;6.678;2023-05-07T19:06:50;18.40;99.90
9881;DHT22;4979;51.014;6.678;2023-05-07T19:09:16;18.30;99.90
9881;DHT22;4979;51.014;6.678;2023-05-07T19:14:07;18.20;99.90
9881;DHT22;4979;51.014;6.678;2023-05-07T19:16:35;18.30;99.90
9881;DHT22;4979;51.014;6.678;2023-05-07T19:26:22;18.20;99.90
9881;DHT22;4979;51.014;6.678;2023-05-07T19:28:48;18.20;99.90
9881;DHT22;4979;51.014;6.678;2023-05-07T19:31:21;18.10;99.90
9881;DHT22;4979;51.014;6.678;2023-05-07T19:33:47;18.20;99.90
9881;DHT22;4979;51.014;6.678;2023-05-07T19:38:41;18.10;99.90
9881;DHT22;4979;51.014;6.678;2023-05-07T19:41:07;18.10;99.90
9881;DHT22;4979;51.014;6.678;2023-05-07T19:43:33;18.10;99.90
9881;DHT22;4979;51.014;6.678;2023-05-07T19:48:28;18.10;99.90
9881;DHT22;4979;51.014;6.678;2023-05-07T19:53:20;18.10;99.90
9881;DHT22;4979;51.014;6.678;2023-05-07T19:58:12;18.10;99.90
9881;DHT22;4979;51.014;6.678;2023-05-07T20:00:40;18.00;99.90
9881;DHT22;4979;51.014;6.678;2023-05-07T20:03:06;18.00;99.90
9881;DHT22;4979;51.014;6.678;2023-05-07T20:07:57;18.00;99.90
9881;DHT22;4979;51.014;6.678;2023-05-07T20:10:24;18.00;99.90
9881;DHT22;4979;51.014;6.678;2023-05-07T20:15:16;18.00;99.90
9881;DHT22;4979;51.014;6.678;2023-05-07T20:17:44;17.90;99.90